Time;durP1;ratioP1;P1;durP2;ratioP2;P2;SDS_P1;SDS_P2;PMS_P1;PMS_P2;Temp;Humidity;BMP_temperature;BMP_pressure;BME280_temperature;BME280_humidity;BME280_pressure;Samples;Min_cycle;Max_cycle;Signal;HPM_P1;HPM_P2
2022/01/16 00:09:51;;;;;;;3.33;2.43;;;;;;;;;;21142335;28;20207;-67
2022/01/16 00:19:52;;;;;;;2.57;1.87;;;;;;;;;;21108148;28;20288;-67
2022/01/16 00:29:55;;;;;;;4.20;2.93;;;;;;;;;;21107079;28;20195;-66
2022/01/16 00:39:56;;;;;;;3.90;2.53;;;;;;;;;;21118649;28;20694;-67
2022/01/16 00:49:58;;;;;;;8.13;3.03;;;;;;;;;;21118718;28;20202;-66
2022/01/16 01:00:00;;;;;;;3.10;2.50;;;;;;;;;;21138751;28;20646;-67
2022/01/16 01:10:03;;;;;;;3.43;2.60;;;1.20;99.90;;;;;;21138289;28;20187;-67
2022/01/16 01:20:06;;;;;;;4.07;2.43;;;;;;;;;;21121009;28;20215;-67
2022/01/16 01:30:12;;;;;;;5.43;3.37;;;;;;;;;;21136864;28;20226;-67
2022/01/16 01:40:15;;;;;;;4.10;2.50;;;;;;;;;;21153854;28;20272;-67
2022/01/16 02:00:39;;;;;;;3.63;2.50;;;;;;;;;;21135753;28;20235;-67
2022/01/16 02:10:41;;;;;;;3.30;2.17;;;;;;;;;;21156727;22;20219;-79
2022/01/16 02:41:06;;;;;;;2.87;2.43;;;;;;;;;;21374097;27;20256;-77
2022/01/16 02:51:08;;;;;;;3.37;2.43;;;;;;;;;;21334754;27;20755;-77
2022/01/16 03:01:10;;;;;;;3.77;2.77;;;;;;;;;;21350595;27;20636;-77
2022/01/16 03:11:16;;;;;;;2.47;2.27;;;;;;;;;;21319719;27;20295;-78
2022/01/16 03:31:38;;;;;;;4.07;3.37;;;;;;;;;;21303888;27;20262;-78
2022/01/16 03:41:40;;;;;;;3.93;2.57;;;;;;;;;;21317305;27;20230;-78
2022/01/16 03:51:43;;;;;;;2.67;1.70;;;;;;;;;;21343835;27;20616;-77
2022/01/16 04:01:45;;;;;;;6.03;3.30;;;;;;;;;;21298861;27;20643;-77
2022/01/16 04:11:55;;;;;;;3.93;2.50;;;;;;;;;;21296672;27;20226;-77
2022/01/16 04:21:57;;;;;;;5.50;3.50;;;;;;;;;;21330410;27;20214;-79
2022/01/16 04:31:59;;;;;;;2.90;1.63;;;;;;;;;;21330789;27;20211;-78
2022/01/16 04:52:22;;;;;;;4.27;2.37;;;;;;;;;;21328735;27;20672;-77
2022/01/16 05:02:24;;;;;;;3.67;3.13;;;;;;;;;;21327664;27;20234;-79
2022/01/16 05:12:37;;;;;;;2.80;2.00;;;;;;;;;;21276161;27;20206;-81
2022/01/16 05:22:39;;;;;;;1.50;1.33;;;;;;;;;;21292262;27;20616;-79
2022/01/16 05:32:41;;;;;;;1.47;1.37;;;;;;;;;;21308174;27;20214;-76
2022/01/16 05:42:43;;;;;;;2.00;1.77;;;;;;;;;;21318735;27;20227;-76
2022/01/16 05:52:45;;;;;;;2.30;1.97;;;;;;;;;;21343523;27;20218;-78
2022/01/16 06:02:46;;;;;;;0.83;0.83;;;;;;;;;;21306445;27;20307;-78
2022/01/16 06:12:48;;;;;;;2.47;1.93;;;;;;;;;;21306799;27;20529;-78
2022/01/16 06:22:53;;;;;;;2.83;2.07;;;;;;;;;;21321419;27;20231;-79
2022/01/16 06:32:55;;;;;;;0.77;0.77;;;;;;;;;;21322089;27;20223;-77
2022/01/16 06:42:57;;;;;;;4.53;2.27;;;;;;;;;;21353186;27;20292;-77
2022/01/16 06:52:59;;;;;;;2.23;1.90;;;;;;;;;;21338335;27;20224;-78
2022/01/16 07:03:01;;;;;;;2.90;1.80;;;;;;;;;;21285346;27;20234;-78
2022/01/16 07:13:04;;;;;;;2.20;2.00;;;0.70;99.90;;;;;;21337601;27;20222;-80
2022/01/16 07:23:05;;;;;;;2.40;2.13;;;;;;;;;;21316568;27;20333;-80
2022/01/16 07:33:08;;;;;;;3.57;2.53;;;;;;;;;;21317747;27;20202;-78
2022/01/16 07:43:09;;;;;;;3.30;2.37;;;;;;;;;;21316717;27;20230;-80
2022/01/16 07:53:12;;;;;;;2.53;1.53;;;;;;;;;;21313016;27;20698;-79
2022/01/16 08:03:15;;;;;;;2.30;1.80;;;;;;;;;;21294777;27;20226;-78
2022/01/16 08:13:17;;;;;;;3.43;2.33;;;;;;;;;;21328892;27;20255;-79
2022/01/16 08:23:18;;;;;;;4.47;2.90;;;;;;;;;;21274842;27;20291;-79
2022/01/16 08:33:21;;;;;;;6.77;5.20;;;;;;;;;;21328185;27;20248;-78
2022/01/16 08:43:23;;;;;;;4.97;3.90;;;;;;;;;;21326076;27;20230;-78
2022/01/16 08:53:25;;;;;;;6.77;4.90;;;;;;;;;;21291771;27;20224;-77
2022/01/16 09:03:27;;;;;;;4.57;3.07;;;;;;;;;;21322614;27;20630;-77
2022/01/16 09:13:28;;;;;;;2.30;1.77;;;;;;;;;;21323477;27;20238;-79
2022/01/16 09:23:31;;;;;;;2.83;2.10;;;;;;;;;;21324205;27;20227;-79
2022/01/16 09:33:34;;;;;;;3.97;2.13;;;;;;;;;;21326174;27;20214;-77
2022/01/16 09:43:37;;;;;;;2.57;2.10;;;;;;;;;;21343836;27;20626;-78
2022/01/16 09:53:43;;;;;;;3.67;2.27;;;;;;;;;;21307083;27;20214;-80
2022/01/16 10:03:46;;;;;;;2.93;2.13;;;1.20;99.90;;;;;;21307322;27;20230;-77
2022/01/16 10:14:03;;;;;;;3.03;2.47;;;;;;;;;;21298480;27;20251;-80
2022/01/16 10:24:25;;;;;;;4.07;2.90;;;1.10;99.90;;;;;;21323255;27;20302;-78
2022/01/16 10:34:31;;;;;;;2.20;1.27;;;;;;;;;;21320289;27;20222;-77
2022/01/16 10:44:34;;;;;;;3.17;2.13;;;;;;;;;;21313746;27;20223;-78
2022/01/16 10:54:41;;;;;;;2.43;2.07;;;;;;;;;;21305392;27;20214;-80
2022/01/16 11:04:43;;;;;;;3.93;2.40;;;;;;;;;;21224067;27;20300;-79
2022/01/16 11:14:44;;;;;;;1.90;1.37;;;;;;;;;;21279705;27;20764;-79
2022/01/16 11:24:58;;;;;;;2.43;1.53;;;;;;;;;;21323519;27;20218;-80
2022/01/16 11:35:00;;;;;;;3.57;2.23;;;;;;;;;;21287233;27;20215;-79
2022/01/16 11:45:03;;;;;;;3.03;2.13;;;;;;;;;;21250320;27;20272;-79
2022/01/16 11:55:09;;;;;;;3.30;2.60;;;;;;;;;;21217140;27;20280;-78
2022/01/16 12:05:24;;;;;;;2.97;2.30;;;1.70;99.90;;;;;;21309896;27;20248;-79
2022/01/16 12:15:28;;;;;;;3.23;1.70;;;;;;;;;;21333179;27;20279;-79
2022/01/16 12:25:37;;;;;;;2.63;1.90;;;;;;;;;;21291299;27;20226;-80
2022/01/16 12:35:39;;;;;;;1.13;0.93;;;;;;;;;;21345408;27;20218;-79
2022/01/16 12:45:42;;;;;;;1.47;1.30;;;2.10;99.90;;;;;;21337900;27;20687;-79
2022/01/16 12:55:46;;;;;;;3.80;2.13;;;;;;;;;;21332983;27;20210;-78
2022/01/16 13:05:48;;;;;;;3.73;2.03;;;;;;;;;;21332081;27;20620;-78
2022/01/16 13:15:50;;;;;;;2.67;1.73;;;;;;;;;;21296300;27;20259;-78
2022/01/16 13:25:56;;;;;;;2.10;1.70;;;2.00;99.90;;;;;;21331102;27;20207;-80
2022/01/16 13:36:01;;;;;;;1.87;1.60;;;;;;;;;;21296485;27;20256;-79
2022/01/16 13:46:11;;;;;;;3.03;2.13;;;;;;;;;;21315498;27;20286;-78
2022/01/16 13:56:17;;;;;;;2.87;2.20;;;;;;;;;;21324420;27;20271;-79
2022/01/16 14:06:20;;;;;;;1.70;1.60;;;;;;;;;;21345399;27;20592;-78
2022/01/16 14:17:02;;;;;;;2.93;2.27;;;2.10;99.90;;;;;;21334394;27;20222;-78
2022/01/16 14:27:07;;;;;;;3.23;2.13;;;2.10;99.90;;;;;;21303395;27;20215;-77
2022/01/16 14:37:09;;;;;;;4.43;2.77;;;2.20;99.90;;;;;;21317500;27;20227;-78
2022/01/16 14:47:11;;;;;;;3.77;2.50;;;;;;;;;;21310799;27;20560;-79
2022/01/16 14:57:13;;;;;;;4.67;2.67;;;;;;;;;;21296625;27;20687;-78
2022/01/16 15:07:16;;;;;;;5.30;2.70;;;;;;;;;;21319575;27;20227;-79
2022/01/16 15:17:19;;;;;;;4.33;2.50;;;;;;;;;;21336613;27;20256;-79
2022/01/16 15:27:22;;;;;;;3.13;2.20;;;;;;;;;;21284631;27;20250;-79
2022/01/16 15:37:25;;;;;;;1.93;1.23;;;;;;;;;;21300076;27;20223;-78
2022/01/16 15:47:28;;;;;;;3.67;2.53;;;;;;;;;;21296510;27;20631;-79
2022/01/16 15:57:29;;;;;;;4.10;2.33;;;;;;;;;;21290597;27;20267;-78
2022/01/16 16:07:32;;;;;;;5.17;2.90;;;;;;;;;;21333784;27;20553;-79
2022/01/16 16:17:34;;;;;;;2.97;2.17;;;;;;;;;;21299281;27;20244;-77
2022/01/16 16:27:36;;;;;;;4.00;2.97;;;;;;;;;;21250758;27;20768;-79
2022/01/16 16:37:39;;;;;;;3.07;2.40;;;;;;;;;;21228867;27;20231;-78
2022/01/16 16:47:41;;;;;;;2.67;1.33;;;;;;;;;;21299882;27;20210;-78
2022/01/16 16:57:42;;;;;;;3.23;2.30;;;;;;;;;;21306611;27;20779;-77
2022/01/16 17:07:45;;;;;;;3.60;1.80;;;;;;;;;;21325723;27;20239;-78
2022/01/16 17:17:50;;;;;;;2.53;1.60;;;;;;;;;;21324234;27;20941;-78
2022/01/16 17:27:52;;;;;;;6.33;2.73;;;;;;;;;;21298360;27;20214;-78
2022/01/16 17:37:54;;;;;;;4.30;3.03;;;;;;;;;;21319517;27;20251;-77
2022/01/16 17:47:56;;;;;;;3.67;2.60;;;;;;;;;;21343231;27;20214;-81
2022/01/16 17:57:58;;;;;;;2.93;2.30;;;;;;;;;;21341417;27;20218;-77
2022/01/16 18:08:00;;;;;;;3.63;2.57;;;;;;;;;;21342307;27;20624;-79
2022/01/16 18:18:08;;;;;;;2.13;1.80;;;;;;;;;;21290959;27;20230;-79
2022/01/16 18:28:14;;;;;;;1.63;1.30;;;;;;;;;;21307158;27;20218;-79
2022/01/16 18:38:16;;;;;;;1.33;1.00;;;;;;;;;;21289697;27;20218;-79
2022/01/16 18:48:22;;;;;;;1.80;1.47;;;;;;;;;;21304538;27;20235;-78
2022/01/16 18:58:25;;;;;;;2.10;1.40;;;;;;;;;;21318356;27;20279;-79
2022/01/16 19:08:29;;;;;;;0.90;0.60;;;;;;;;;;21331529;27;20218;-79
2022/01/16 19:18:30;;;;;;;1.57;1.23;;;;;;;;;;21165967;28;20228;-79
2022/01/16 19:28:36;;;;;;;1.30;0.90;;;;;;;;;;21156660;28;20212;-79
2022/01/16 19:38:39;;;;;;;1.30;1.10;;;;;;;;;;21144196;28;20242;-79
2022/01/16 19:48:41;;;;;;;1.97;1.30;;;;;;;;;;21102671;28;20258;-79
2022/01/16 19:58:44;;;;;;;1.83;1.13;;;;;;;;;;21079115;28;20281;-79
2022/01/16 20:08:48;;;;;;;0.10;0.10;;;;;;;;;;21129954;28;20224;-80
2022/01/16 20:18:51;;;;;;;1.87;1.23;;;2.50;99.90;;;;;;21112514;28;20217;-79
2022/01/16 20:28:54;;;;;;;1.63;1.40;;;;;;;;;;21104648;28;20211;-79
2022/01/16 20:38:55;;;;;;;0.93;0.77;;;;;;;;;;21110573;28;20225;-80
2022/01/16 20:48:58;;;;;;;1.27;1.13;;;;;;;;;;21119926;28;20220;-77
2022/01/16 20:59:00;;;;;;;1.87;0.90;;;;;;;;;;21136305;28;20236;-78
2022/01/16 21:09:03;;;;;;;1.03;0.93;;;2.40;99.90;;;;;;21133527;28;20289;-79
2022/01/16 21:19:07;;;;;;;2.40;1.43;;;;;;;;;;21135828;28;20284;-78
2022/01/16 21:29:09;;;;;;;1.80;1.27;;;;;;;;;;21074355;28;20632;-81
2022/01/16 21:39:10;;;;;;;1.23;0.97;;;;;;;;;;21129294;28;20227;-78
2022/01/16 21:49:15;;;;;;;1.73;1.13;;;;;;;;;;21132470;28;20284;-78
2022/01/16 21:59:18;;;;;;;2.20;1.83;;;;;;;;;;21137854;28;20713;-78
2022/01/16 22:09:20;;;;;;;1.83;1.50;;;;;;;;;;21154813;28;20641;-79
2022/01/16 22:19:23;;;;;;;2.30;1.67;;;;;;;;;;21155235;28;20235;-78
2022/01/16 22:29:24;;;;;;;2.93;1.93;;;;;;;;;;21119694;28;20220;-80
2022/01/16 22:39:27;;;;;;;2.50;1.60;;;;;;;;;;21119918;28;20235;-78
2022/01/16 22:49:29;;;;;;;2.47;1.47;;;2.40;99.90;;;;;;21145743;28;20224;-78
2022/01/16 22:59:31;;;;;;;2.50;1.90;;;;;;;;;;21169684;28;20245;-78
2022/01/16 23:09:33;;;;;;;3.00;1.73;;;;;;;;;;21168299;27;20208;-78
2022/01/16 23:19:35;;;;;;;3.40;1.90;;;;;;;;;;21168724;28;20279;-78
2022/01/16 23:29:38;;;;;;;3.37;2.20;;;;;;;;;;21152570;28;20276;-78
2022/01/16 23:39:40;;;;;;;4.87;2.73;;;;;;;;;;21147017;28;20212;-78
2022/01/16 23:49:42;;;;;;;3.57;2.03;;;;;;;;;;21165662;28;20301;-77
2022/01/16 23:59:43;;;;;;;3.00;2.17;;;;;;;;;;21163871;27;20550;-78
